createdAt,value
2017-12-12T00:01:44.441Z,98114.91
2017-12-12T00:04:12.748Z,98114.55
2017-12-12T00:06:41.864Z,98126.76
2017-12-12T00:09:11.584Z,98145.84
2017-12-12T00:11:39.945Z,98143.33
2017-12-12T00:14:09.628Z,98141.55
2017-12-12T00:16:38.057Z,98141.01
2017-12-12T00:19:06.420Z,98149.02
2017-12-12T00:21:35.516Z,98131.86
2017-12-12T00:24:04.640Z,98138.27
2017-12-12T00:26:33.001Z,98147.06
2017-12-12T00:29:02.677Z,98156.70
2017-12-12T00:31:31.008Z,98153.33
2017-12-12T00:33:59.360Z,98148.59
2017-12-12T00:36:27.688Z,98136.84
2017-12-12T00:38:56.017Z,98142.19
2017-12-12T00:41:24.760Z,98138.95
2017-12-12T00:43:53.126Z,98139.80
2017-12-12T00:46:21.445Z,98142.47
2017-12-12T00:48:50.179Z,98139.88
2017-12-12T00:51:18.554Z,98141.91
2017-12-12T00:53:46.884Z,98142.86
2017-12-12T00:56:15.968Z,98149.41
2017-12-12T00:58:44.356Z,98154.50
2017-12-12T01:01:13.448Z,98165.92
2017-12-12T01:03:42.564Z,98176.10
2017-12-12T01:06:10.932Z,98189.23
2017-12-12T01:08:40.073Z,98204.02
2017-12-12T01:11:08.396Z,98222.63
2017-12-12T01:13:37.152Z,98225.63
2017-12-12T01:16:05.480Z,98210.97
2017-12-12T01:18:34.204Z,98201.56
2017-12-12T01:21:02.571Z,98206.30
2017-12-12T01:23:31.316Z,98200.97
2017-12-12T01:26:00.477Z,98218.88
2017-12-12T01:28:28.804Z,98225.89
2017-12-12T01:30:57.136Z,98220.23
2017-12-12T01:33:25.496Z,98219.23
2017-12-12T01:35:54.956Z,98225.78
2017-12-12T01:38:24.098Z,98222.30
2017-12-12T01:40:53.192Z,98217.06
2017-12-12T01:43:21.519Z,98242.73
2017-12-12T01:45:49.892Z,98250.53
2017-12-12T01:48:18.983Z,98253.09
2017-12-12T01:50:47.359Z,98246.11
2017-12-12T01:53:16.472Z,98247.36
2017-12-12T01:55:45.659Z,98247.02
2017-12-12T01:58:14.804Z,98243.13
2017-12-12T02:00:43.184Z,98243.70
2017-12-12T02:03:11.975Z,98244.05
2017-12-12T02:05:40.312Z,98238.14
2017-12-12T02:08:09.415Z,98241.02
2017-12-12T02:10:37.789Z,98247.67
2017-12-12T02:13:06.543Z,98249.84
2017-12-12T02:15:34.915Z,98258.21
2017-12-12T02:18:03.255Z,98266.27
2017-12-12T02:20:31.663Z,98274.06
2017-12-12T02:23:00.132Z,98273.08
2017-12-12T02:25:28.472Z,98278.02
2017-12-12T02:27:57.260Z,98295.58
2017-12-12T02:30:25.983Z,98295.27
2017-12-12T02:32:55.136Z,98298.17
2017-12-12T02:35:23.933Z,98298.24
2017-12-12T02:37:52.264Z,98306.72
2017-12-12T02:40:20.703Z,98307.67
2017-12-12T02:42:49.072Z,98307.24
2017-12-12T02:45:17.426Z,98307.11
2017-12-12T02:47:46.580Z,98313.37
2017-12-12T02:50:15.352Z,98313.66
2017-12-12T02:52:43.679Z,98318.69
2017-12-12T02:55:12.452Z,98319.56
2017-12-12T02:57:40.800Z,98320.88
2017-12-12T03:00:09.263Z,98326.26
2017-12-12T03:02:37.587Z,98328.83
2017-12-12T03:05:07.351Z,98326.02
2017-12-12T03:07:35.667Z,98328.53
2017-12-12T03:10:04.383Z,98335.22
2017-12-12T03:12:33.570Z,98348.37
2017-12-12T03:15:02.707Z,98347.55
2017-12-12T03:17:32.223Z,98345.38
2017-12-12T03:20:01.347Z,98357.71
2017-12-12T03:22:29.719Z,98357.81
2017-12-12T03:24:58.104Z,98360.41
2017-12-12T03:27:26.423Z,98362.33
2017-12-12T03:29:54.791Z,98359.27
2017-12-12T03:32:23.114Z,98365.70
2017-12-12T03:34:51.459Z,98367.87
2017-12-12T03:37:20.224Z,98367.67
2017-12-12T03:39:48.966Z,98367.57
2017-12-12T03:42:17.335Z,98372.53
2017-12-12T03:44:45.658Z,98378.33
2017-12-12T03:47:14.762Z,98389.23
2017-12-12T03:49:44.251Z,98381.38
2017-12-12T03:52:12.590Z,98386.91
2017-12-12T03:54:40.959Z,98386.91
2017-12-12T03:57:09.284Z,98393.14
2017-12-12T03:59:37.647Z,98393.42
2017-12-12T04:02:07.526Z,98399.81
2017-12-12T04:04:35.894Z,98410.72
2017-12-12T04:07:05.357Z,98410.95
2017-12-12T04:09:34.110Z,98414.37
2017-12-12T04:12:02.539Z,98422.95
2017-12-12T04:14:30.858Z,98429.08
2017-12-12T04:16:59.170Z,98425.13
2017-12-12T04:19:27.529Z,98427.04
2017-12-12T04:21:56.298Z,98429.78
2017-12-12T04:24:24.694Z,98434.59
2017-12-12T04:26:53.066Z,98426.00
2017-12-12T04:29:21.374Z,98430.48
2017-12-12T04:31:49.690Z,98433.91
2017-12-12T04:34:18.450Z,98440.11
2017-12-12T04:36:47.542Z,98457.57
2017-12-12T04:39:16.666Z,98454.05
2017-12-12T04:41:46.346Z,98455.09
2017-12-12T04:44:15.474Z,98434.80
2017-12-12T04:46:43.850Z,98441.39
2017-12-12T04:49:12.202Z,98450.29
2017-12-12T04:51:42.190Z,98457.53
2017-12-12T04:54:10.950Z,98468.73
2017-12-12T04:56:40.454Z,98477.77
2017-12-12T04:59:08.770Z,98482.77
2017-12-12T05:01:37.442Z,98491.66
2017-12-12T05:04:05.794Z,98499.90
2017-12-12T05:06:34.114Z,98508.06
2017-12-12T05:09:02.942Z,98518.14
2017-12-12T05:11:31.730Z,98510.08
2017-12-12T05:14:01.618Z,98513.53
2017-12-12T05:16:30.714Z,98516.61
2017-12-12T05:18:59.841Z,98514.97
2017-12-12T05:21:29.014Z,98527.95
2017-12-12T05:23:58.111Z,98530.56
2017-12-12T05:26:26.865Z,98537.31
2017-12-12T05:28:55.190Z,98551.75
2017-12-12T05:31:23.506Z,98548.69
2017-12-12T05:33:51.874Z,98548.62
2017-12-12T05:36:20.202Z,98557.36
2017-12-12T05:38:49.342Z,98556.34
2017-12-12T05:41:18.438Z,98562.41
2017-12-12T05:43:47.150Z,98572.50
2017-12-12T05:46:15.590Z,98565.48
2017-12-12T05:48:44.706Z,98571.70
2017-12-12T05:51:13.473Z,98565.68
2017-12-12T05:53:42.188Z,98582.59
2017-12-12T05:56:10.958Z,98578.55
2017-12-12T05:58:39.277Z,98585.20
2017-12-12T06:01:08.513Z,98603.36
2017-12-12T06:03:36.882Z,98623.11
2017-12-12T06:06:05.214Z,98623.83
2017-12-12T06:08:33.537Z,98634.00
2017-12-12T06:11:01.890Z,98633.65
2017-12-12T06:13:31.022Z,98632.63
2017-12-12T06:15:59.377Z,98623.95
2017-12-12T06:18:27.746Z,98622.64
2017-12-12T06:20:56.833Z,98639.92
2017-12-12T06:23:25.965Z,98631.12
2017-12-12T06:25:54.310Z,98643.98
2017-12-12T06:28:23.123Z,98646.36
2017-12-12T06:30:51.437Z,98649.12
2017-12-12T06:33:19.765Z,98647.67
2017-12-12T06:35:49.174Z,98660.08
2017-12-12T06:38:17.498Z,98672.84
2017-12-12T06:40:45.815Z,98671.02
2017-12-12T06:43:14.179Z,98678.28
2017-12-12T06:45:42.902Z,98703.22
2017-12-12T06:48:11.223Z,98701.03
2017-12-12T06:50:39.653Z,98710.09
2017-12-12T06:53:07.989Z,98701.61
2017-12-12T06:55:37.877Z,98709.45
2017-12-12T06:58:06.676Z,98718.28
2017-12-12T07:00:34.981Z,98731.45
2017-12-12T07:03:04.491Z,98740.47
2017-12-12T07:05:33.590Z,98733.03
2017-12-12T07:08:02.738Z,98730.02
2017-12-12T07:10:31.458Z,98749.61
2017-12-12T07:12:59.810Z,98746.05
2017-12-12T07:15:28.157Z,98757.56
2017-12-12T07:17:56.529Z,98762.80
2017-12-12T07:20:24.873Z,98758.60
2017-12-12T07:22:54.064Z,98774.40
2017-12-12T07:25:23.185Z,98773.91
2017-12-12T07:27:51.573Z,98790.50
2017-12-12T07:30:19.957Z,98805.16
2017-12-12T07:32:48.673Z,98810.95
2017-12-12T07:35:17.013Z,98820.12
2017-12-12T07:37:45.349Z,98819.01
2017-12-12T07:40:14.113Z,98831.39
2017-12-12T07:42:42.438Z,98842.40
2017-12-12T07:45:11.693Z,98861.78
2017-12-12T07:47:40.016Z,98868.80
2017-12-12T07:50:09.108Z,98872.95
2017-12-12T07:52:38.262Z,98874.28
2017-12-12T07:55:06.625Z,98865.91
2017-12-12T07:57:35.892Z,98878.14
2017-12-12T08:00:04.257Z,98868.05
2017-12-12T08:02:33.400Z,98869.89
2017-12-12T08:05:02.508Z,98857.02
2017-12-12T08:07:31.216Z,98867.88
2017-12-12T08:10:00.754Z,98887.59
2017-12-12T08:12:30.040Z,98873.62
2017-12-12T08:14:59.952Z,98895.86
2017-12-12T08:17:28.700Z,98873.73
2017-12-12T08:19:57.432Z,98882.23
2017-12-12T08:22:26.581Z,98910.91
2017-12-12T08:24:54.949Z,98916.64
2017-12-12T08:27:24.624Z,98912.61
2017-12-12T08:29:53.429Z,98917.21
2017-12-12T08:32:21.763Z,98915.06
2017-12-12T08:34:50.253Z,98940.64
2017-12-12T08:37:19.005Z,98943.13
2017-12-12T08:39:47.740Z,98958.02
2017-12-12T08:42:16.561Z,98961.33
2017-12-12T08:44:44.972Z,98947.14
2017-12-12T08:47:14.064Z,98975.38
2017-12-12T08:49:42.884Z,98994.59
2017-12-12T08:52:12.552Z,98979.16
2017-12-12T08:54:41.311Z,98995.72
2017-12-12T08:57:10.048Z,99005.75
2017-12-12T08:59:38.365Z,99010.41
2017-12-12T09:02:07.092Z,99016.53
2017-12-12T09:04:35.820Z,99040.59
2017-12-12T09:07:04.956Z,99042.65
2017-12-12T09:09:33.324Z,99071.64
2017-12-12T09:12:02.089Z,99083.33
2017-12-12T09:14:30.460Z,99085.87
2017-12-12T09:16:59.180Z,99084.63
2017-12-12T09:19:27.901Z,99098.39
2017-12-12T09:21:57.226Z,99110.67
2017-12-12T09:24:25.932Z,99116.94
2017-12-12T09:26:54.652Z,99128.68
2017-12-12T09:29:23.004Z,99153.80
2017-12-12T09:31:51.328Z,99158.49
2017-12-12T09:34:20.084Z,99165.75
2017-12-12T09:36:49.175Z,99178.61
2017-12-12T09:39:17.599Z,99175.25
2017-12-12T09:41:45.966Z,99181.20
2017-12-12T09:44:14.817Z,99192.28
2017-12-12T09:46:43.136Z,99198.82
2017-12-12T09:49:11.463Z,99206.00
2017-12-12T09:51:39.844Z,99217.52
2017-12-12T09:54:08.156Z,99209.48
2017-12-12T09:56:36.511Z,99234.44
2017-12-12T09:59:04.852Z,99239.71
2017-12-12T10:01:33.178Z,99236.49
2017-12-12T10:04:01.561Z,99252.30
2017-12-12T10:06:29.904Z,99259.03
2017-12-12T10:08:58.260Z,99266.02
2017-12-12T10:11:27.792Z,99264.70
2017-12-12T10:13:56.115Z,99292.23
2017-12-12T10:16:25.923Z,99299.52
2017-12-12T10:18:54.248Z,99308.89
2017-12-12T10:21:22.566Z,99313.17
2017-12-12T10:23:50.919Z,99317.48
2017-12-12T10:26:19.263Z,99327.34
2017-12-12T10:28:49.039Z,99333.28
2017-12-12T10:31:17.356Z,99340.45
2017-12-12T10:33:45.676Z,99342.06
2017-12-12T10:36:14.796Z,99342.28
2017-12-12T10:38:43.892Z,99356.76
2017-12-12T10:41:12.660Z,99350.06
2017-12-12T10:43:42.557Z,99363.29
2017-12-12T10:46:12.034Z,99365.97
2017-12-12T10:48:40.383Z,99364.59
2017-12-12T10:51:08.739Z,99374.48
2017-12-12T10:53:37.056Z,99373.66
2017-12-12T10:56:05.407Z,99384.99
2017-12-12T10:58:33.737Z,99376.58
2017-12-12T11:01:02.060Z,99401.73
2017-12-12T11:03:31.956Z,99405.25
2017-12-12T11:06:00.288Z,99425.52
2017-12-12T11:08:28.607Z,99426.58
2017-12-12T11:10:58.484Z,99444.59
2017-12-12T11:13:26.791Z,99444.14
2017-12-12T11:15:55.547Z,99443.98
2017-12-12T11:18:23.903Z,99446.33
2017-12-12T11:20:53.027Z,99453.58
2017-12-12T11:23:22.123Z,99455.53
2017-12-12T11:25:50.508Z,99450.65
2017-12-12T11:28:18.831Z,99450.20
2017-12-12T11:30:47.659Z,99439.03
2017-12-12T11:33:16.791Z,99455.45
2017-12-12T11:35:46.566Z,99462.91
2017-12-12T11:38:16.243Z,99465.63
2017-12-12T11:40:45.384Z,99470.02
2017-12-12T11:43:13.735Z,99477.68
2017-12-12T11:45:42.111Z,99495.24
2017-12-12T11:48:11.264Z,99496.73
2017-12-12T11:50:39.628Z,99486.71
2017-12-12T11:53:08.519Z,99508.05
2017-12-12T11:55:36.891Z,99509.30
2017-12-12T11:58:05.227Z,99510.17
2017-12-12T12:00:34.355Z,99519.55
2017-12-12T12:03:03.983Z,99523.05
2017-12-12T12:05:32.339Z,99536.47
2017-12-12T12:08:00.675Z,99551.39
2017-12-12T12:10:30.375Z,99549.66
2017-12-12T12:12:58.715Z,99561.91
2017-12-12T12:15:28.584Z,99564.00
2017-12-12T12:17:58.079Z,99572.55
2017-12-12T12:20:26.402Z,99574.31
2017-12-12T12:22:54.771Z,99579.41
2017-12-12T12:25:23.159Z,99580.88
2017-12-12T12:27:51.570Z,99591.90
2017-12-12T12:30:21.291Z,99601.84
2017-12-12T12:32:50.415Z,99607.38
2017-12-12T12:35:18.760Z,99611.98
2017-12-12T12:37:47.115Z,99619.87
2017-12-12T12:40:15.458Z,99630.20
2017-12-12T12:42:44.162Z,99640.02
2017-12-12T12:45:12.695Z,99650.34
2017-12-12T12:47:41.025Z,99672.41
2017-12-12T12:50:10.536Z,99659.23
2017-12-12T12:52:38.868Z,99650.95
2017-12-12T12:55:07.204Z,99657.22
2017-12-12T12:57:35.598Z,99664.36
2017-12-12T13:00:04.135Z,99677.45
2017-12-12T13:02:33.260Z,99683.19
2017-12-12T13:05:01.692Z,99695.34
2017-12-12T13:07:36.947Z,99680.58
2017-12-12T13:12:59.552Z,99711.50
2017-12-12T13:15:28.103Z,99720.39
2017-12-12T13:17:58.114Z,99719.69
2017-12-12T13:20:28.268Z,99717.79
2017-12-12T13:23:04.578Z,99723.09
2017-12-12T13:25:38.878Z,99729.39
2017-12-12T13:28:11.754Z,99751.05
2017-12-12T13:30:50.966Z,99743.20
2017-12-12T13:33:39.242Z,99758.95
2017-12-12T13:36:09.043Z,99763.67
2017-12-12T13:38:38.142Z,99765.05
2017-12-12T13:41:06.878Z,99776.48
2017-12-12T13:43:35.234Z,99774.00
2017-12-12T13:46:03.579Z,99783.62
2017-12-12T13:48:32.683Z,99780.29
2017-12-12T13:51:01.047Z,99784.34
2017-12-12T13:53:30.532Z,99792.95
2017-12-12T13:55:58.891Z,99791.01
2017-12-12T13:58:27.234Z,99802.29
2017-12-12T14:00:55.614Z,99801.45
2017-12-12T14:03:24.742Z,99807.58
2017-12-12T14:05:53.141Z,99819.10
2017-12-12T14:08:21.537Z,99815.97
2017-12-12T14:10:51.434Z,99827.02
2017-12-12T14:13:19.863Z,99824.72
2017-12-12T14:15:48.234Z,99831.34
2017-12-12T14:18:16.565Z,99845.86
2017-12-12T14:20:45.103Z,99840.65
2017-12-12T14:23:13.882Z,99843.73
2017-12-12T14:25:42.297Z,99839.27
2017-12-12T14:28:11.038Z,99850.70
2017-12-12T14:30:41.995Z,99861.75
2017-12-12T14:33:11.874Z,99868.79
2017-12-12T14:35:41.374Z,99864.70
2017-12-12T14:38:09.783Z,99874.77
2017-12-12T14:40:38.257Z,99878.82
2017-12-12T14:43:07.948Z,99884.84
2017-12-12T14:45:37.446Z,99886.15
2017-12-12T14:48:06.948Z,99903.31
2017-12-12T14:50:35.308Z,99890.21
2017-12-12T14:53:03.667Z,99901.70
2017-12-12T14:55:33.137Z,99906.54
2017-12-12T14:58:03.017Z,99910.89
2017-12-12T15:00:31.509Z,99923.21
2017-12-12T15:03:00.963Z,99938.96
2017-12-12T15:05:29.297Z,99938.51
2017-12-12T15:07:57.650Z,99957.74
2017-12-12T15:10:25.971Z,99952.91
2017-12-12T15:12:54.379Z,99967.34
2017-12-12T15:15:22.710Z,99964.69
2017-12-12T15:17:52.214Z,99962.08
2017-12-12T15:20:21.357Z,99970.87
2017-12-12T15:22:49.703Z,99962.14
2017-12-12T15:25:18.793Z,99984.02
2017-12-12T15:27:47.209Z,99990.59
2017-12-12T15:30:16.325Z,99997.59
2017-12-12T15:32:44.677Z,100003.20
2017-12-12T15:35:13.072Z,100006.56
2017-12-12T15:37:41.481Z,100013.58
2017-12-12T15:40:11.217Z,100008.80
2017-12-12T15:42:39.905Z,100020.61
2017-12-12T15:45:08.674Z,100000.91
2017-12-12T15:47:37.791Z,100014.04
2017-12-12T15:50:06.287Z,100008.36
2017-12-12T15:52:35.945Z,100008.78
2017-12-12T15:55:05.038Z,100009.65
2017-12-12T15:57:33.968Z,100017.66
2017-12-12T16:00:02.334Z,100017.20
2017-12-12T16:02:31.569Z,100027.27
2017-12-12T16:04:59.897Z,100031.02
2017-12-12T16:07:28.795Z,100024.95
2017-12-12T16:09:58.041Z,100034.09
2017-12-12T16:12:26.450Z,100043.87
2017-12-12T16:14:54.936Z,100041.19
2017-12-12T16:17:23.270Z,100050.78
2017-12-12T16:19:52.489Z,100054.80
2017-12-12T16:22:21.014Z,100057.04
2017-12-12T16:24:50.449Z,100060.62
2017-12-12T16:27:19.574Z,100054.50
2017-12-12T16:29:49.412Z,100066.33
2017-12-12T16:32:18.559Z,100066.26
2017-12-12T16:34:47.312Z,100070.64
2017-12-12T16:37:16.575Z,100068.05
2017-12-12T16:39:45.009Z,100072.88
2017-12-12T16:42:13.333Z,100076.81
2017-12-12T16:44:42.197Z,100073.77
2017-12-12T16:47:10.612Z,100074.20
2017-12-12T16:49:39.344Z,100065.00
2017-12-12T16:52:07.684Z,100082.59
2017-12-12T16:54:37.231Z,100085.33
2017-12-12T16:57:05.592Z,100096.66
2017-12-12T16:59:33.953Z,100097.22
2017-12-12T17:02:03.805Z,100113.02
2017-12-12T17:04:32.576Z,100118.75
2017-12-12T17:07:01.302Z,100115.25
2017-12-12T17:09:30.102Z,100123.46
2017-12-12T17:11:58.826Z,100131.27
2017-12-12T17:14:27.260Z,100133.88
2017-12-12T17:16:56.944Z,100128.19
2017-12-12T17:19:25.443Z,100130.81
2017-12-12T17:21:55.425Z,100149.57
2017-12-12T17:24:23.752Z,100157.44
2017-12-12T17:26:52.081Z,100155.69
2017-12-12T17:29:20.504Z,100164.88
2017-12-12T17:31:49.057Z,100170.93
2017-12-12T17:34:18.988Z,100164.30
2017-12-12T17:36:48.155Z,100180.39
2017-12-12T17:39:18.384Z,100185.58
2017-12-12T17:41:46.859Z,100187.86
2017-12-12T17:44:15.264Z,100184.78
2017-12-12T17:46:43.583Z,100187.99
2017-12-12T17:49:12.080Z,100200.66
2017-12-12T17:51:41.015Z,100212.34
2017-12-12T17:54:10.889Z,100215.85
2017-12-12T17:56:40.543Z,100216.28
2017-12-12T17:59:10.288Z,100226.34
2017-12-12T18:01:40.692Z,100218.92
2017-12-12T18:04:10.397Z,100229.41
2017-12-12T18:06:38.779Z,100224.98
2017-12-12T18:09:07.115Z,100240.22
2017-12-12T18:11:36.887Z,100243.77
2017-12-12T18:14:05.232Z,100248.59
2017-12-12T18:16:34.039Z,100257.39
2017-12-12T18:19:03.144Z,100254.72
2017-12-12T18:21:32.271Z,100263.34
2017-12-12T18:24:00.669Z,100280.91
2017-12-12T18:26:29.083Z,100299.13
2017-12-12T18:28:58.584Z,100314.11
2017-12-12T18:31:28.273Z,100320.69
2017-12-12T18:33:57.309Z,100333.88
2017-12-12T18:36:26.463Z,100340.55
2017-12-12T18:38:54.798Z,100354.19
2017-12-12T18:41:23.219Z,100368.28
2017-12-12T18:43:51.616Z,100360.43
2017-12-12T18:46:20.831Z,100371.83
2017-12-12T18:48:49.605Z,100370.54
2017-12-12T18:51:19.469Z,100363.13
2017-12-12T18:53:47.844Z,100377.52
2017-12-12T18:56:16.269Z,100374.46
2017-12-12T18:58:44.611Z,100385.83
2017-12-12T19:01:13.344Z,100389.77
2017-12-12T19:03:42.938Z,100398.06
2017-12-12T19:06:13.416Z,100397.19
2017-12-12T19:08:41.995Z,100402.86
2017-12-12T19:11:11.787Z,100405.05
2017-12-12T19:13:45.191Z,100406.80
2017-12-12T19:16:15.328Z,100418.17
2017-12-12T19:18:43.823Z,100426.02
2017-12-12T19:21:14.247Z,100435.63
2017-12-12T19:23:45.235Z,100439.58
2017-12-12T19:26:15.406Z,100449.19
2017-12-12T19:28:44.044Z,100460.94
2017-12-12T19:31:14.561Z,100461.41
2017-12-12T19:33:43.017Z,100470.13
2017-12-12T19:36:11.395Z,100479.28
2017-12-12T19:38:39.807Z,100486.32
2017-12-12T19:41:09.176Z,100490.66
2017-12-12T19:43:37.977Z,100497.22
2017-12-12T19:46:07.911Z,100511.63
2017-12-12T19:48:37.071Z,100509.48
2017-12-12T19:51:07.216Z,100517.78
2017-12-12T19:53:35.967Z,100526.94
2017-12-12T19:56:04.455Z,100532.61
2017-12-12T19:58:36.099Z,100539.59
2017-12-12T20:01:07.100Z,100542.15
2017-12-12T20:03:38.392Z,100553.52
2017-12-12T20:06:07.695Z,100564.08
2017-12-12T20:08:36.792Z,100571.06
2017-12-12T20:11:06.235Z,100568.02
2017-12-12T20:13:36.739Z,100584.58
2017-12-12T20:16:07.071Z,100589.66
2017-12-12T20:18:36.251Z,100590.89
2017-12-12T20:21:05.044Z,100587.35
2017-12-12T20:23:33.475Z,100602.66
2017-12-12T20:26:03.267Z,100593.02
2017-12-12T20:28:32.987Z,100598.33
2017-12-12T20:31:02.767Z,100601.78
2017-12-12T20:33:31.803Z,100605.23
2017-12-12T20:36:00.765Z,100614.88
2017-12-12T20:38:43.687Z,100624.12
2017-12-12T20:41:13.394Z,100620.63
2017-12-12T20:43:42.574Z,100623.64
2017-12-12T20:46:15.830Z,100625.77
2017-12-12T20:48:46.307Z,100629.74
2017-12-12T20:51:15.655Z,100641.45
2017-12-12T20:53:44.562Z,100641.66
2017-12-12T20:56:16.130Z,100643.73
2017-12-12T20:58:46.346Z,100651.21
2017-12-12T21:01:15.248Z,100652.34
2017-12-12T21:03:45.946Z,100662.56
2017-12-12T21:06:14.682Z,100658.56
2017-12-12T21:08:45.131Z,100665.88
2017-12-12T21:11:17.516Z,100674.98
2017-12-12T21:13:47.554Z,100672.61
2017-12-12T21:16:16.807Z,100684.25
2017-12-12T21:18:47.243Z,100679.87
2017-12-12T21:21:17.646Z,100685.20
2017-12-12T21:23:52.200Z,100689.23
2017-12-12T21:26:21.316Z,100689.35
2017-12-12T21:28:50.524Z,100691.96
2017-12-12T21:31:18.926Z,100692.83
2017-12-12T21:33:49.160Z,100697.64
2017-12-12T21:36:18.290Z,100697.28
2017-12-12T21:38:49.774Z,100704.27
2017-12-12T21:41:18.187Z,100704.77
2017-12-12T21:43:46.562Z,100710.05
2017-12-12T21:46:16.246Z,100704.80
2017-12-12T21:48:44.614Z,100704.66
2017-12-12T21:51:13.254Z,100708.52
2017-12-12T21:53:43.270Z,100711.06
2017-12-12T21:56:12.036Z,100712.75
2017-12-12T21:58:40.474Z,100716.65
2017-12-12T22:01:08.931Z,100720.12
2017-12-12T22:03:37.250Z,100724.08
2017-12-12T22:06:05.698Z,100723.69
2017-12-12T22:08:34.026Z,100727.21
2017-12-12T22:11:02.386Z,100726.41
2017-12-12T22:13:30.710Z,100725.63
2017-12-12T22:15:59.478Z,100722.13
2017-12-12T22:18:27.833Z,100725.22
2017-12-12T22:20:57.290Z,100725.30
2017-12-12T22:23:26.048Z,100726.25
2017-12-12T22:25:54.370Z,100729.77
2017-12-12T22:28:23.501Z,100728.07
2017-12-12T22:30:52.977Z,100732.48
2017-12-12T22:33:21.341Z,100734.67
2017-12-12T22:35:49.679Z,100732.90
2017-12-12T22:38:18.773Z,100740.39
2017-12-12T22:40:48.682Z,100739.98
2017-12-12T22:43:17.069Z,100724.13
2017-12-12T22:45:45.905Z,100742.48
2017-12-12T22:48:14.732Z,100748.70
2017-12-12T22:50:43.094Z,100743.92
2017-12-12T22:53:12.201Z,100746.61
2017-12-12T22:55:40.581Z,100749.17
2017-12-12T22:58:08.985Z,100749.64
2017-12-12T23:00:37.341Z,100760.98
2017-12-12T23:03:05.734Z,100760.16
2017-12-12T23:05:34.164Z,100759.63
2017-12-12T23:08:02.925Z,100758.73
2017-12-12T23:10:31.244Z,100759.65
2017-12-12T23:12:59.637Z,100764.00
2017-12-12T23:15:27.997Z,100771.36
2017-12-12T23:17:56.410Z,100768.73
2017-12-12T23:20:24.741Z,100763.91
2017-12-12T23:22:54.197Z,100768.27
2017-12-12T23:25:23.953Z,100770.44
2017-12-12T23:27:52.321Z,100779.14
2017-12-12T23:30:20.682Z,100783.98
2017-12-12T23:32:50.136Z,100787.07
2017-12-12T23:35:18.889Z,100786.88
2017-12-12T23:37:47.244Z,100793.70
2017-12-12T23:40:16.416Z,100789.27
2017-12-12T23:42:44.768Z,100786.52
2017-12-12T23:45:13.133Z,100791.69
2017-12-12T23:47:41.512Z,100789.43
2017-12-12T23:50:10.986Z,100789.43
2017-12-12T23:52:39.729Z,100789.36
2017-12-12T23:55:08.084Z,100791.89
2017-12-12T23:57:36.464Z,100795.80
